Time;durP1;ratioP1;P1;durP2;ratioP2;P2;SDS_P1;SDS_P2;PMS_P1;PMS_P2;Temp;Humidity;BMP_temperature;BMP_pressure;BME280_temperature;BME280_humidity;BME280_pressure;Samples;Min_cycle;Max_cycle;Signal;HPM_P1;HPM_P2
2023/09/04 00:00:27;;;;;;;1.95;1.80;;;13.40;99.90;;;;;;5133232;27;20035;-63
2023/09/04 00:02:53;;;;;;;2.30;1.95;;;13.40;99.90;;;;;;5114807;27;20123;-63
2023/09/04 00:05:18;;;;;;;2.80;1.80;;;13.40;99.90;;;;;;5133416;27;20042;-63
2023/09/04 00:07:45;;;;;;;2.05;1.73;;;13.30;99.90;;;;;;5097472;27;20413;-63
2023/09/04 00:10:11;;;;;;;2.40;1.70;;;13.30;99.90;;;;;;5114834;27;20042;-64
2023/09/04 00:12:37;;;;;;;4.50;1.90;;;13.30;99.90;;;;;;5114659;27;20122;-63
2023/09/04 00:15:03;;;;;;;2.22;2.03;;;13.30;99.90;;;;;;5132967;27;20146;-64
2023/09/04 00:17:30;;;;;;;2.80;1.70;;;13.20;99.90;;;;;;5097353;27;20053;-64
2023/09/04 00:19:56;;;;;;;1.80;1.70;;;13.20;99.90;;;;;;5133315;27;20114;-64
2023/09/04 00:22:22;;;;;;;2.40;1.60;;;13.20;99.90;;;;;;5114255;27;20458;-63
2023/09/04 00:24:47;;;;;;;1.85;1.50;;;13.20;99.90;;;;;;5114979;27;20114;-63
2023/09/04 00:27:13;;;;;;;2.58;1.90;;;13.20;99.90;;;;;;5114445;27;20113;-64
2023/09/04 00:29:39;;;;;;;2.72;1.98;;;13.20;99.90;;;;;;5132571;27;20106;-63
2023/09/04 00:32:06;;;;;;;4.40;1.80;;;13.20;99.90;;;;;;5114304;27;20038;-63
2023/09/04 00:34:32;;;;;;;1.80;1.70;;;13.10;99.90;;;;;;5113813;27;20042;-63
2023/09/04 00:36:58;;;;;;;2.35;1.85;;;13.10;99.90;;;;;;5132731;27;20027;-64
2023/09/04 00:39:23;;;;;;;1.98;1.83;;;13.10;99.90;;;;;;5113921;27;20039;-63
2023/09/04 00:41:49;;;;;;;2.70;2.00;;;13.00;99.90;;;;;;5114240;27;20031;-63
2023/09/04 00:44:15;;;;;;;1.65;1.55;;;13.00;99.90;;;;;;5114454;27;20019;-65
2023/09/04 00:46:41;;;;;;;1.95;1.83;;;13.00;99.90;;;;;;5132285;27;20035;-63
2023/09/04 00:49:08;;;;;;;2.05;1.85;;;12.90;99.90;;;;;;5114367;27;20043;-63
2023/09/04 00:51:34;;;;;;;2.20;2.00;;;12.90;99.90;;;;;;5132196;27;20039;-64
2023/09/04 00:54:00;;;;;;;2.00;1.80;;;12.90;99.90;;;;;;5132555;27;20043;-64
2023/09/04 00:56:26;;;;;;;2.00;1.73;;;12.80;99.90;;;;;;5113691;27;20039;-64
2023/09/04 00:58:52;;;;;;;2.85;2.17;;;12.80;99.90;;;;;;5114261;27;20034;-63
2023/09/04 01:01:18;;;;;;;1.92;1.73;;;12.80;99.90;;;;;;5113748;27;20401;-64
2023/09/04 01:03:44;;;;;;;2.92;1.67;;;12.80;99.90;;;;;;5112709;27;20055;-64
2023/09/04 01:06:10;;;;;;;2.15;1.55;;;12.80;99.90;;;;;;5113784;27;20030;-63
2023/09/04 01:08:36;;;;;;;4.05;1.88;;;12.80;99.90;;;;;;5113537;27;20065;-63
2023/09/04 01:11:26;;;;;;;2.15;1.95;;;12.70;99.90;;;;;;5096570;27;20043;-63
2023/09/04 01:13:55;;;;;;;4.10;2.10;;;12.70;99.90;;;;;;5132102;27;20390;-62
2023/09/04 01:16:22;;;;;;;1.92;1.80;;;12.70;99.90;;;;;;5113575;27;20047;-64
2023/09/04 01:18:48;;;;;;;2.65;1.92;;;12.70;99.90;;;;;;5113443;27;20099;-63
2023/09/04 01:21:14;;;;;;;1.98;1.70;;;12.70;99.90;;;;;;5113666;27;20050;-63
2023/09/04 01:23:40;;;;;;;2.70;2.50;;;12.70;99.90;;;;;;5113188;27;20409;-64
2023/09/04 01:26:11;;;;;;;5.05;2.60;;;12.70;99.90;;;;;;5113570;27;20043;-63
2023/09/04 01:29:00;;;;;;;3.53;2.47;;;12.60;99.90;;;;;;5131592;27;20415;-64
2023/09/04 01:31:53;;;;;;;2.78;2.58;;;12.60;99.90;;;;;;5113607;28;20445;-64
2023/09/04 01:34:29;;;;;;;4.13;2.75;;;12.60;99.90;;;;;;5113729;27;20042;-62
2023/09/04 01:36:57;;;;;;;2.58;2.38;;;12.60;99.90;;;;;;5113428;27;20039;-64
2023/09/04 01:39:24;;;;;;;3.00;2.65;;;12.60;99.90;;;;;;5131902;27;20185;-64
2023/09/04 01:41:50;;;;;;;2.78;2.58;;;12.50;99.90;;;;;;5113123;27;20039;-64
2023/09/04 01:44:16;;;;;;;3.50;2.65;;;12.50;99.90;;;;;;5113556;28;20045;-63
2023/09/04 01:46:41;;;;;;;2.80;2.35;;;12.50;99.90;;;;;;5113004;27;20035;-64
2023/09/04 01:49:07;;;;;;;2.15;1.95;;;12.60;99.90;;;;;;5113176;28;20119;-64
2023/09/04 01:51:33;;;;;;;3.67;1.92;;;12.50;99.90;;;;;;5131826;27;20032;-64
2023/09/04 01:53:59;;;;;;;2.80;2.00;;;12.50;99.90;;;;;;5113129;27;20053;-64
2023/09/04 01:56:25;;;;;;;1.67;1.58;;;12.50;99.90;;;;;;5113319;28;20070;-63
2023/09/04 01:58:50;;;;;;;2.38;1.50;;;12.50;99.90;;;;;;5131301;27;20497;-63
2023/09/04 02:01:16;;;;;;;1.75;1.65;;;12.50;99.90;;;;;;5113020;28;20036;-63
2023/09/04 02:03:56;;;;;;;2.60;1.50;;;12.40;99.90;;;;;;5096101;27;20170;-63
2023/09/04 02:06:27;;;;;;;1.67;1.42;;;12.40;99.90;;;;;;5113074;28;20044;-63
2023/09/04 02:08:52;;;;;;;1.90;1.60;;;12.30;99.90;;;;;;5131551;27;20117;-63
2023/09/04 02:11:18;;;;;;;1.70;1.60;;;12.30;99.90;;;;;;5113262;28;20141;-64
2023/09/04 02:13:47;;;;;;;2.08;1.40;;;12.30;99.90;;;;;;5112877;27;20032;-65
2023/09/04 02:16:13;;;;;;;2.78;1.55;;;12.20;99.90;;;;;;5116277;27;20412;-62
2023/09/04 02:18:39;;;;;;;4.13;1.85;;;12.20;99.90;;;;;;5116933;27;20049;-62
2023/09/04 02:21:05;;;;;;;1.90;1.70;;;12.20;99.90;;;;;;5116741;27;20031;-62
2023/09/04 02:23:31;;;;;;;2.58;1.50;;;12.20;99.90;;;;;;5117285;27;20490;-63
2023/09/04 02:25:56;;;;;;;2.67;1.60;;;12.20;99.90;;;;;;5117089;27;20049;-64
2023/09/04 02:28:22;;;;;;;2.00;1.45;;;12.20;99.90;;;;;;5135336;27;20119;-63
2023/09/04 02:30:48;;;;;;;2.17;1.63;;;12.10;99.90;;;;;;5116561;27;20039;-63
2023/09/04 02:33:13;;;;;;;2.47;2.00;;;12.10;99.90;;;;;;5116612;27;20047;-63
2023/09/04 02:35:39;;;;;;;3.05;2.00;;;12.10;99.90;;;;;;5117066;27;20062;-64
2023/09/04 02:38:05;;;;;;;2.30;2.10;;;12.10;99.90;;;;;;5099261;27;20169;-64
2023/09/04 02:40:30;;;;;;;2.45;1.90;;;12.10;99.90;;;;;;5116621;27;20454;-63
2023/09/04 02:42:56;;;;;;;3.13;2.00;;;12.10;99.90;;;;;;5116258;27;20051;-64
2023/09/04 02:45:22;;;;;;;2.03;1.70;;;12.10;99.90;;;;;;5116582;27;20508;-64
2023/09/04 02:47:47;;;;;;;2.42;2.22;;;12.00;99.90;;;;;;5116353;27;20397;-64
2023/09/04 02:50:13;;;;;;;2.67;1.80;;;12.10;99.90;;;;;;5116257;27;20494;-63
2023/09/04 02:52:39;;;;;;;2.35;2.15;;;12.00;99.90;;;;;;5116648;27;20042;-63
2023/09/04 02:55:06;;;;;;;3.20;2.58;;;12.00;99.90;;;;;;5116320;27;20121;-63
2023/09/04 02:57:32;;;;;;;2.42;2.20;;;12.00;99.90;;;;;;5116313;27;20051;-64
2023/09/04 02:59:59;;;;;;;2.22;1.90;;;12.00;99.90;;;;;;5098955;27;20051;-64
2023/09/04 03:02:25;;;;;;;2.30;2.10;;;12.00;99.90;;;;;;5116046;27;20114;-65
2023/09/04 03:04:54;;;;;;;3.65;2.13;;;11.90;99.90;;;;;;5134718;27;20114;-63
2023/09/04 03:07:21;;;;;;;3.97;2.22;;;11.90;99.90;;;;;;5116018;27;20043;-64
2023/09/04 03:09:47;;;;;;;2.08;1.98;;;11.90;99.90;;;;;;5116250;27;20047;-63
2023/09/04 03:12:13;;;;;;;3.78;2.28;;;11.80;99.90;;;;;;5115985;27;20401;-63
2023/09/04 03:14:39;;;;;;;2.85;2.50;;;11.90;99.90;;;;;;5115953;27;20043;-64
2023/09/04 03:17:05;;;;;;;4.22;2.20;;;11.80;99.90;;;;;;5134097;27;20055;-64
2023/09/04 03:19:30;;;;;;;3.70;2.50;;;11.80;99.90;;;;;;5134481;27;20031;-63
2023/09/04 03:21:57;;;;;;;2.15;2.00;;;11.80;99.90;;;;;;5134299;27;20157;-63
2023/09/04 03:24:23;;;;;;;2.47;2.28;;;11.80;99.90;;;;;;5133941;27;20494;-63
2023/09/04 03:26:49;;;;;;;2.72;2.53;;;11.70;99.90;;;;;;5114634;27;20043;-64
2023/09/04 03:29:15;;;;;;;3.75;2.70;;;11.70;99.90;;;;;;5133901;27;20498;-63
2023/09/04 03:31:41;;;;;;;3.30;3.00;;;11.70;99.90;;;;;;5115883;27;20047;-63
2023/09/04 03:34:07;;;;;;;3.50;3.20;;;11.70;99.90;;;;;;5115588;27;20051;-64
2023/09/04 03:36:33;;;;;;;3.50;3.20;;;11.60;99.90;;;;;;5115795;27;20039;-63
2023/09/04 03:38:59;;;;;;;3.70;3.40;;;11.60;99.90;;;;;;5134111;27;20558;-64
2023/09/04 03:41:26;;;;;;;3.72;3.42;;;11.60;99.90;;;;;;5133555;27;20027;-64
2023/09/04 03:43:51;;;;;;;5.72;3.80;;;11.60;99.90;;;;;;5098031;27;20043;-64
2023/09/04 03:46:17;;;;;;;4.63;4.00;;;11.60;99.90;;;;;;5115174;27;20160;-64
2023/09/04 03:48:43;;;;;;;5.05;4.55;;;11.60;99.90;;;;;;5115758;27;20087;-64
2023/09/04 03:51:08;;;;;;;5.00;4.60;;;11.60;99.90;;;;;;5115131;27;20127;-63
2023/09/04 03:53:34;;;;;;;4.13;3.63;;;11.50;99.90;;;;;;5115285;27;20046;-64
2023/09/04 03:56:06;;;;;;;5.70;4.05;;;11.50;99.90;;;;;;5115290;27;20042;-63
2023/09/04 03:58:32;;;;;;;4.75;3.08;;;11.40;99.90;;;;;;5133620;27;20125;-63
2023/09/04 04:00:58;;;;;;;2.92;2.67;;;11.40;99.90;;;;;;5133626;27;20525;-62
2023/09/04 04:03:23;;;;;;;5.25;2.88;;;11.40;99.90;;;;;;5114681;27;20431;-63
2023/09/04 04:05:49;;;;;;;3.85;2.67;;;11.30;99.90;;;;;;5114995;27;20043;-62
2023/09/04 04:08:15;;;;;;;3.03;2.45;;;11.30;99.90;;;;;;5133107;27;20035;-62
2023/09/04 04:10:40;;;;;;;3.08;2.88;;;11.30;99.90;;;;;;5114946;27;20039;-64
2023/09/04 04:13:06;;;;;;;2.75;2.55;;;11.20;99.90;;;;;;5114663;27;20055;-64
2023/09/04 04:15:32;;;;;;;2.80;2.55;;;11.20;99.90;;;;;;5114540;27;20073;-64
2023/09/04 04:17:57;;;;;;;4.07;2.40;;;11.20;99.90;;;;;;5114491;27;20088;-64
2023/09/04 04:20:23;;;;;;;3.40;2.58;;;11.20;99.90;;;;;;5114598;27;20116;-64
2023/09/04 04:22:48;;;;;;;5.07;2.80;;;11.20;99.90;;;;;;5114742;27;20103;-64
2023/09/04 04:25:14;;;;;;;2.72;2.50;;;11.20;99.90;;;;;;5114355;27;20061;-64
2023/09/04 04:27:41;;;;;;;2.88;2.67;;;11.10;99.90;;;;;;5114433;27;20035;-63
2023/09/04 04:30:10;;;;;;;2.80;2.60;;;11.10;99.90;;;;;;5133015;27;20036;-64
2023/09/04 04:32:36;;;;;;;2.50;2.30;;;11.10;99.90;;;;;;5132762;27;20485;-64
2023/09/04 04:35:02;;;;;;;2.70;2.50;;;11.10;99.90;;;;;;5114545;27;20054;-63
2023/09/04 04:37:28;;;;;;;4.53;2.30;;;11.00;99.90;;;;;;5114117;27;20387;-64
2023/09/04 04:39:54;;;;;;;3.05;2.75;;;11.10;99.90;;;;;;5114062;27;20043;-64
2023/09/04 04:42:19;;;;;;;2.22;2.03;;;11.00;99.90;;;;;;5114017;27;20046;-63
2023/09/04 04:44:45;;;;;;;2.40;2.20;;;11.00;99.90;;;;;;5114122;27;20035;-64
2023/09/04 04:47:11;;;;;;;3.33;2.45;;;11.00;99.90;;;;;;5114181;27;20167;-62
2023/09/04 04:49:36;;;;;;;3.05;2.30;;;11.00;99.90;;;;;;5114140;27;20460;-64
2023/09/04 04:52:02;;;;;;;2.78;2.50;;;11.00;99.90;;;;;;5114159;27;20038;-64
2023/09/04 04:54:28;;;;;;;3.08;2.20;;;11.00;99.90;;;;;;5096654;27;20455;-63
2023/09/04 04:56:53;;;;;;;4.80;2.40;;;11.00;99.90;;;;;;5132280;27;20401;-63
2023/09/04 04:59:19;;;;;;;3.53;2.65;;;11.00;99.90;;;;;;5113916;27;20427;-63
2023/09/04 05:01:45;;;;;;;3.95;2.25;;;11.00;99.90;;;;;;5113149;27;20429;-63
2023/09/04 05:04:11;;;;;;;3.85;2.45;;;11.00;99.90;;;;;;5132555;27;20046;-64
2023/09/04 05:06:36;;;;;;;2.50;2.30;;;11.00;99.90;;;;;;5113712;27;20065;-63
2023/09/04 05:09:03;;;;;;;2.58;2.38;;;11.00;99.90;;;;;;5132154;27;20023;-64
2023/09/04 05:11:29;;;;;;;3.00;2.65;;;11.00;99.90;;;;;;5113282;27;20042;-63
2023/09/04 05:13:54;;;;;;;3.30;3.00;;;11.00;99.90;;;;;;5132356;27;20095;-64
2023/09/04 05:16:20;;;;;;;3.55;3.20;;;11.10;99.90;;;;;;5113340;27;20051;-64
2023/09/04 05:18:46;;;;;;;4.40;2.90;;;11.10;99.90;;;;;;5113515;27;20039;-62
2023/09/04 05:21:12;;;;;;;4.60;3.28;;;11.10;99.90;;;;;;5113751;27;20478;-64
2023/09/04 05:23:38;;;;;;;3.60;3.30;;;11.20;99.90;;;;;;5132284;27;20035;-64
2023/09/04 05:26:03;;;;;;;4.32;3.45;;;11.20;99.90;;;;;;5131624;27;20031;-64
2023/09/04 05:28:29;;;;;;;3.83;3.53;;;11.30;99.90;;;;;;5113227;27;20031;-65
2023/09/04 05:31:04;;;;;;;4.57;3.63;;;11.30;99.90;;;;;;5113458;27;20155;-63
2023/09/04 05:33:30;;;;;;;4.05;3.65;;;11.40;99.90;;;;;;5113184;27;20035;-64
2023/09/04 05:35:56;;;;;;;4.32;3.60;;;11.40;99.90;;;;;;5131849;27;20065;-63
2023/09/04 05:38:22;;;;;;;3.85;3.55;;;11.50;99.90;;;;;;5113561;27;20043;-64
2023/09/04 05:41:00;;;;;;;5.10;4.10;;;11.60;99.90;;;;;;5095432;27;20538;-64
2023/09/04 05:43:26;;;;;;;5.03;4.53;;;11.60;99.90;;;;;;5113205;28;20043;-62
2023/09/04 05:45:51;;;;;;;6.15;5.55;;;11.70;99.90;;;;;;5112989;27;20053;-64
2023/09/04 05:48:17;;;;;;;10.38;7.10;;;11.80;99.90;;;;;;5113316;28;20027;-64
2023/09/04 05:50:43;;;;;;;7.65;6.90;;;11.90;99.90;;;;;;5118571;27;20393;-64
2023/09/04 05:53:08;;;;;;;8.52;7.72;;;12.00;99.90;;;;;;5120028;27;20066;-62
2023/09/04 05:55:36;;;;;;;7.93;7.18;;;12.10;99.90;;;;;;5120379;27;20042;-64
2023/09/04 05:58:02;;;;;;;9.63;8.57;;;12.20;99.90;;;;;;5119949;27;20104;-63
2023/09/04 06:00:27;;;;;;;10.50;9.05;;;12.30;99.90;;;;;;5138695;27;20046;-64
2023/09/04 06:02:54;;;;;;;12.85;10.25;;;12.40;99.90;;;;;;5119641;27;20035;-64
2023/09/04 06:05:21;;;;;;;11.23;9.75;;;12.60;99.90;;;;;;5138408;27;20039;-62
2023/09/04 06:07:47;;;;;;;10.45;9.48;;;12.70;99.90;;;;;;5102282;27;20051;-64
2023/09/04 06:10:12;;;;;;;10.50;9.43;;;12.80;99.90;;;;;;5120098;27;20096;-63
2023/09/04 06:12:38;;;;;;;9.98;8.98;;;12.80;99.90;;;;;;5138361;27;20071;-64
2023/09/04 06:15:04;;;;;;;10.20;9.20;;;12.90;99.90;;;;;;5131847;27;20121;-64
2023/09/04 06:17:31;;;;;;;11.80;9.00;;;13.00;99.90;;;;;;5140641;27;20054;-64
2023/09/04 06:19:56;;;;;;;10.80;9.70;;;13.10;99.90;;;;;;5140086;27;20077;-64
2023/09/04 06:22:22;;;;;;;9.88;8.98;;;13.20;99.90;;;;;;5140205;27;20038;-64
2023/09/04 06:24:49;;;;;;;10.60;9.60;;;13.30;99.90;;;;;;5140077;27;20603;-63
2023/09/04 06:27:14;;;;;;;10.18;9.18;;;13.40;99.90;;;;;;5140485;27;20109;-64
2023/09/04 06:29:40;;;;;;;11.25;10.15;;;13.50;99.90;;;;;;5140001;27;20046;-64
2023/09/04 06:32:06;;;;;;;10.23;8.75;;;13.70;99.90;;;;;;5139998;27;20034;-63
2023/09/04 06:34:31;;;;;;;9.95;9.00;;;13.90;99.90;;;;;;5140242;27;20038;-63
2023/09/04 06:36:57;;;;;;;10.35;9.30;;;14.00;99.90;;;;;;5158518;27;20121;-63
2023/09/04 06:39:22;;;;;;;9.50;8.60;;;14.20;99.90;;;;;;5158852;27;20113;-64
2023/09/04 06:41:49;;;;;;;9.57;8.68;;;14.30;99.90;;;;;;5122659;27;20043;-64
2023/09/04 06:44:14;;;;;;;9.82;8.82;;;14.50;99.90;;;;;;5140320;27;20124;-64
2023/09/04 06:46:40;;;;;;;9.35;8.50;;;14.70;99.90;;;;;;5140207;27;20066;-64
2023/09/04 06:49:06;;;;;;;9.82;8.88;;;14.90;99.90;;;;;;5139404;27;20085;-63
2023/09/04 06:51:32;;;;;;;9.40;8.13;;;15.10;99.90;;;;;;5139933;27;20039;-63
2023/09/04 06:53:58;;;;;;;10.05;8.35;;;15.20;99.90;;;;;;5158482;27;20042;-64
2023/09/04 06:56:24;;;;;;;9.65;8.70;;;15.40;99.90;;;;;;5140001;27;20091;-64
2023/09/04 06:58:49;;;;;;;9.38;8.05;;;15.60;99.90;;;;;;5158513;27;20031;-63
2023/09/04 07:01:15;;;;;;;11.30;8.10;;;15.80;99.90;;;;;;5138597;27;20038;-64
2023/09/04 07:03:41;;;;;;;8.18;7.47;;;16.00;99.90;;;;;;5155519;27;20370;-64
2023/09/04 07:06:07;;;;;;;10.07;7.90;;;16.10;99.90;;;;;;5154951;27;20415;-64
2023/09/04 07:08:33;;;;;;;10.23;7.15;;;16.30;99.90;;;;;;5136407;27;20107;-64
2023/09/04 07:10:59;;;;;;;8.32;7.57;;;16.50;99.90;;;;;;5136682;27;20049;-64
2023/09/04 07:13:24;;;;;;;8.05;7.25;;;16.70;99.90;;;;;;5136538;27;20103;-64
2023/09/04 07:15:50;;;;;;;7.97;6.97;;;16.80;99.90;;;;;;5136461;27;20055;-64
2023/09/04 07:18:16;;;;;;;7.68;6.88;;;17.00;99.90;;;;;;5118746;27;20409;-63
2023/09/04 07:20:41;;;;;;;8.43;7.18;;;17.10;99.90;;;;;;5136539;27;20061;-64
2023/09/04 07:23:07;;;;;;;8.77;7.22;;;17.20;99.90;;;;;;5136138;27;20103;-63
2023/09/04 07:25:34;;;;;;;7.82;7.13;;;17.30;99.90;;;;;;5136631;27;20042;-64
2023/09/04 07:28:00;;;;;;;7.68;6.90;;;17.30;99.90;;;;;;5135607;27;20430;-64
2023/09/04 07:30:25;;;;;;;8.13;6.53;;;17.50;99.90;;;;;;5154839;27;20042;-64
2023/09/04 07:32:51;;;;;;;7.90;6.32;;;17.60;99.90;;;;;;5154742;27;20042;-63
2023/09/04 07:35:17;;;;;;;7.47;6.38;;;17.70;99.90;;;;;;5154482;27;20090;-63
2023/09/04 07:37:42;;;;;;;7.40;6.60;;;17.80;99.90;;;;;;5154648;27;20468;-64
2023/09/04 07:40:08;;;;;;;7.65;6.20;;;18.00;99.90;;;;;;5154497;27;20046;-64
2023/09/04 07:42:34;;;;;;;6.97;6.30;;;18.10;99.90;;;;;;5136128;27;20042;-63
2023/09/04 07:45:00;;;;;;;6.88;6.18;;;18.10;99.90;;;;;;5135971;27;20043;-63
2023/09/04 07:47:25;;;;;;;6.88;6.18;;;18.20;99.90;;;;;;5135697;27;20027;-64
2023/09/04 07:49:52;;;;;;;7.20;6.50;;;18.40;99.90;;;;;;5135766;27;20046;-64
2023/09/04 07:52:18;;;;;;;7.32;6.47;;;18.60;99.90;;;;;;5135639;27;20121;-63
2023/09/04 07:54:45;;;;;;;6.85;6.25;;;18.70;99.90;;;;;;5154857;27;20122;-63
2023/09/04 07:57:11;;;;;;;5.95;5.32;;;18.80;99.90;;;;;;5135349;27;20049;-64
2023/09/04 07:59:37;;;;;;;7.32;5.72;;;19.00;99.90;;;;;;5154264;27;20560;-63
2023/09/04 08:02:03;;;;;;;6.60;5.60;;;19.20;99.90;;;;;;5154054;27;20042;-64
2023/09/04 08:04:29;;;;;;;7.55;6.20;;;19.30;99.90;;;;;;5135235;27;20038;-65
2023/09/04 08:06:56;;;;;;;6.50;5.80;;;19.40;99.90;;;;;;5154226;27;20117;-64
2023/09/04 08:09:22;;;;;;;6.45;5.20;;;19.50;99.90;;;;;;5135106;27;20045;-63
2023/09/04 08:11:48;;;;;;;7.22;5.18;;;19.60;99.90;;;;;;5135518;27;20395;-63
2023/09/04 08:14:13;;;;;;;7.15;5.22;;;19.70;99.90;;;;;;5134568;27;20106;-63
2023/09/04 08:16:39;;;;;;;6.05;4.97;;;19.80;99.90;;;;;;5153694;27;20051;-64
2023/09/04 08:19:04;;;;;;;5.00;4.50;;;19.90;99.90;;;;;;5135083;27;20053;-62
2023/09/04 08:21:31;;;;;;;5.45;4.97;;;20.10;99.90;;;;;;5135195;27;20478;-65
2023/09/04 08:23:57;;;;;;;6.50;5.10;;;20.20;99.90;;;;;;5153687;27;20102;-65
2023/09/04 08:26:22;;;;;;;8.02;5.72;;;20.30;99.90;;;;;;5134765;27;20175;-63
2023/09/04 08:28:48;;;;;;;5.55;4.30;;;20.40;99.90;;;;;;5135213;27;20070;-64
2023/09/04 08:31:13;;;;;;;4.72;4.22;;;20.60;99.90;;;;;;5134811;27;20094;-63
2023/09/04 08:33:39;;;;;;;5.47;4.50;;;20.70;99.90;;;;;;5134982;27;20401;-62
2023/09/04 08:36:05;;;;;;;4.38;3.97;;;20.80;99.90;;;;;;5134927;27;20046;-63
2023/09/04 08:38:31;;;;;;;4.85;3.83;;;20.90;99.90;;;;;;5134852;27;20053;-64
2023/09/04 08:41:01;;;;;;;4.43;3.80;;;21.00;99.90;;;;;;5135102;27;20027;-64
2023/09/04 08:43:30;;;;;;;3.60;3.20;;;21.20;99.90;;;;;;5134475;27;20042;-63
2023/09/04 08:45:59;;;;;;;5.43;3.22;;;21.30;99.90;;;;;;5134821;27;20042;-65
2023/09/04 08:48:28;;;;;;;6.20;2.95;;;21.30;99.90;;;;;;5152912;27;20038;-64
2023/09/04 08:50:55;;;;;;;3.70;3.20;;;21.40;99.90;;;;;;5117550;27;20038;-63
2023/09/04 08:53:21;;;;;;;4.32;2.97;;;21.50;99.90;;;;;;5134410;27;20046;-64
2023/09/04 08:55:47;;;;;;;5.18;3.10;;;21.50;99.90;;;;;;5153186;27;20031;-63
2023/09/04 08:58:14;;;;;;;3.15;2.65;;;21.60;99.90;;;;;;5134949;27;20121;-64
2023/09/04 09:00:40;;;;;;;3.35;2.40;;;21.70;99.90;;;;;;5134380;27;20068;-63
2023/09/04 09:03:06;;;;;;;5.40;2.38;;;21.80;99.90;;;;;;5152822;27;20030;-64
2023/09/04 09:05:33;;;;;;;2.85;2.30;;;21.90;99.90;;;;;;5134022;27;20074;-62
2023/09/04 09:08:00;;;;;;;2.83;2.10;;;22.00;99.90;;;;;;5117174;27;20050;-64
2023/09/04 09:10:26;;;;;;;2.10;1.88;;;22.00;99.90;;;;;;5133998;27;20106;-65
2023/09/04 09:12:51;;;;;;;2.47;2.20;;;22.20;99.90;;;;;;5134387;27;20117;-64
2023/09/04 09:15:18;;;;;;;2.95;2.00;;;22.30;99.90;;;;;;5116488;27;20055;-64
2023/09/04 09:17:55;;;;;;;4.07;2.25;;;22.30;99.90;;;;;;5116655;27;20815;-64
2023/09/04 09:20:33;;;;;;;2.30;2.10;;;22.60;99.90;;;;;;5152793;27;20030;-64
2023/09/04 09:22:59;;;;;;;2.97;1.90;;;22.70;99.90;;;;;;5134059;27;20038;-64
2023/09/04 09:25:27;;;;;;;2.70;1.83;;;22.80;99.90;;;;;;5133099;27;20031;-64
2023/09/04 09:28:01;;;;;;;2.58;1.70;;;23.00;99.90;;;;;;5134336;27;20035;-65
2023/09/04 09:30:53;;;;;;;2.25;1.73;;;23.00;99.90;;;;;;5134055;27;20393;-63
2023/09/04 09:33:20;;;;;;;3.58;1.65;;;23.10;99.90;;;;;;5129451;27;20085;-65
2023/09/04 09:35:46;;;;;;;2.10;1.60;;;23.10;99.90;;;;;;5133833;27;20107;-64
2023/09/04 09:38:12;;;;;;;3.10;1.83;;;23.20;99.90;;;;;;5133941;27;20027;-65
2023/09/04 09:40:37;;;;;;;2.40;1.98;;;23.20;99.90;;;;;;5152349;27;20090;-66
2023/09/04 09:43:03;;;;;;;2.53;2.17;;;23.40;99.90;;;;;;5152274;27;20034;-64
2023/09/04 09:45:35;;;;;;;4.00;1.77;;;23.50;99.90;;;;;;5152097;27;20473;-65
2023/09/04 09:48:07;;;;;;;2.60;1.87;;;23.60;99.90;;;;;;5133773;27;20106;-64
2023/09/04 09:50:36;;;;;;;2.75;1.60;;;23.80;99.90;;;;;;5133735;27;20527;-64
2023/09/04 09:53:03;;;;;;;3.08;1.50;;;24.00;99.90;;;;;;5133921;27;20050;-65
2023/09/04 09:55:31;;;;;;;3.42;1.60;;;24.20;99.90;;;;;;5133959;27;20061;-65
2023/09/04 09:57:58;;;;;;;2.47;1.73;;;24.40;99.90;;;;;;5133947;27;20133;-65
2023/09/04 10:00:25;;;;;;;3.92;1.70;;;24.60;99.90;;;;;;5134057;27;20086;-65
2023/09/04 10:02:51;;;;;;;2.75;1.50;;;24.80;99.90;;;;;;5133410;27;20043;-65
2023/09/04 10:05:19;;;;;;;2.45;1.55;;;24.90;99.90;;;;;;5133527;27;20042;-64
2023/09/04 10:07:49;;;;;;;2.50;1.40;;;25.00;99.10;;;;;;5133327;27;20073;-65
2023/09/04 10:10:15;;;;;;;5.47;2.03;;;25.00;98.00;;;;;;5133595;27;20038;-64
2023/09/04 10:12:49;;;;;;;3.08;1.80;;;24.90;96.20;;;;;;5133547;27;20074;-64
2023/09/04 10:15:26;;;;;;;2.65;2.00;;;24.90;95.70;;;;;;5133638;27;20118;-64
2023/09/04 10:18:03;;;;;;;2.47;1.77;;;24.90;96.00;;;;;;5116526;27;20145;-64
2023/09/04 10:20:29;;;;;;;2.28;1.75;;;24.90;96.80;;;;;;5133625;27;20481;-64
2023/09/04 10:23:17;;;;;;;2.22;1.80;;;25.10;96.50;;;;;;5133094;27;20119;-65
2023/09/04 10:25:53;;;;;;;3.10;1.90;;;25.10;94.50;;;;;;5133314;27;20405;-64
2023/09/04 10:28:24;;;;;;;3.85;1.75;;;25.10;95.00;;;;;;5151894;27;20030;-64
2023/09/04 10:30:53;;;;;;;2.80;2.00;;;25.20;95.40;;;;;;5133418;27;20034;-64
2023/09/04 10:33:20;;;;;;;6.85;1.90;;;25.30;95.50;;;;;;5133562;27;20405;-64
2023/09/04 10:35:46;;;;;;;2.95;1.67;;;25.50;96.00;;;;;;5152459;27;20060;-64
2023/09/04 10:38:13;;;;;;;2.75;1.73;;;25.80;95.80;;;;;;5155900;27;20387;-64
2023/09/04 10:40:40;;;;;;;3.53;1.95;;;26.00;95.80;;;;;;5155761;27;20081;-64
2023/09/04 10:43:09;;;;;;;3.25;1.98;;;26.10;93.70;;;;;;5136514;27;20038;-64
2023/09/04 10:45:35;;;;;;;2.35;1.75;;;26.10;92.20;;;;;;5137117;27;20043;-64
2023/09/04 10:48:01;;;;;;;3.05;2.10;;;26.20;93.70;;;;;;5137121;27;20385;-65
2023/09/04 10:50:34;;;;;;;2.92;2.10;;;26.20;92.40;;;;;;5137109;27;20050;-63
2023/09/04 10:53:01;;;;;;;2.35;1.83;;;26.20;91.90;;;;;;5119591;27;20042;-64
2023/09/04 10:55:27;;;;;;;2.42;1.65;;;26.10;91.20;;;;;;5136960;27;20417;-65
2023/09/04 10:57:57;;;;;;;6.43;1.92;;;26.20;91.90;;;;;;5136688;27;20050;-64
2023/09/04 11:00:35;;;;;;;1.80;1.60;;;26.30;92.50;;;;;;5136990;27;20528;-64
2023/09/04 11:03:21;;;;;;;1.70;1.60;;;26.50;92.20;;;;;;5136488;27;20043;-64
2023/09/04 11:06:12;;;;;;;1.50;1.40;;;26.70;90.90;;;;;;5136521;27;20041;-63
2023/09/04 11:08:50;;;;;;;3.00;1.98;;;26.90;92.00;;;;;;5119407;27;20045;-64
2023/09/04 11:11:20;;;;;;;4.60;2.60;;;27.00;91.30;;;;;;5155550;27;20042;-63
2023/09/04 11:13:54;;;;;;;4.15;2.50;;;27.10;91.30;;;;;;5136584;27;20055;-65
2023/09/04 11:16:19;;;;;;;2.00;1.80;;;27.20;90.80;;;;;;5132658;27;20073;-65
2023/09/04 11:18:46;;;;;;;2.17;1.63;;;27.20;90.10;;;;;;5133048;27;20051;-63
2023/09/04 11:21:14;;;;;;;2.15;1.70;;;27.30;90.30;;;;;;5133978;27;20050;-63
2023/09/04 11:23:41;;;;;;;2.30;1.98;;;27.20;90.50;;;;;;5132900;27;20118;-65
2023/09/04 11:26:07;;;;;;;3.30;1.90;;;27.30;90.10;;;;;;5115588;27;20077;-64
2023/09/04 11:28:33;;;;;;;1.95;1.60;;;27.20;88.80;;;;;;5133151;27;20509;-63
2023/09/04 11:30:59;;;;;;;2.45;1.50;;;27.00;88.90;;;;;;5132660;27;20099;-64
2023/09/04 11:33:33;;;;;;;2.38;1.58;;;27.00;89.50;;;;;;5132762;27;20490;-64
2023/09/04 11:36:03;;;;;;;1.60;1.45;;;27.00;89.50;;;;;;5133965;27;20500;-64
2023/09/04 11:38:31;;;;;;;2.42;1.40;;;27.00;90.10;;;;;;5115610;27;20516;-64
2023/09/04 11:40:57;;;;;;;3.38;1.35;;;27.00;89.20;;;;;;5132407;27;20054;-63
2023/09/04 11:43:24;;;;;;;3.78;1.20;;;27.10;88.80;;;;;;5132340;27;20047;-64
2023/09/04 11:45:55;;;;;;;1.58;1.48;;;27.30;90.00;;;;;;5132695;27;20043;-64
2023/09/04 11:48:28;;;;;;;4.95;1.50;;;27.30;87.60;;;;;;5132862;27;20042;-63
2023/09/04 11:50:54;;;;;;;2.88;1.40;;;27.40;86.70;;;;;;5133794;27;20043;-63
2023/09/04 11:53:22;;;;;;;2.30;1.77;;;27.20;86.60;;;;;;5133410;27;20038;-64
2023/09/04 11:55:50;;;;;;;2.97;1.67;;;27.20;87.10;;;;;;5132248;27;20062;-65
2023/09/04 11:58:16;;;;;;;2.60;1.88;;;27.20;88.60;;;;;;5133361;27;20497;-64
2023/09/04 12:00:42;;;;;;;2.30;2.05;;;27.10;87.90;;;;;;5132273;27;20051;-64
2023/09/04 12:03:07;;;;;;;2.05;1.60;;;27.00;89.10;;;;;;5131851;27;20054;-64
2023/09/04 12:05:35;;;;;;;3.90;1.58;;;26.90;87.80;;;;;;5115345;27;20126;-64
2023/09/04 12:08:01;;;;;;;2.10;1.70;;;26.70;87.00;;;;;;5115014;27;20043;-64
2023/09/04 12:10:27;;;;;;;2.47;1.70;;;26.50;87.90;;;;;;5132178;27;20043;-64
2023/09/04 12:12:53;;;;;;;2.58;1.70;;;26.30;88.30;;;;;;5131987;27;20039;-64
2023/09/04 12:15:30;;;;;;;5.50;1.50;;;26.20;88.10;;;;;;5131718;27;20175;-64
2023/09/04 12:17:58;;;;;;;4.78;2.10;;;26.10;89.20;;;;;;5131891;27;20055;-65
2023/09/04 12:20:23;;;;;;;2.63;1.95;;;26.00;90.10;;;;;;5131684;27;20035;-64
2023/09/04 12:22:56;;;;;;;2.53;2.00;;;25.80;90.10;;;;;;5132979;27;20036;-64
2023/09/04 12:25:25;;;;;;;2.17;1.70;;;25.80;91.30;;;;;;5114562;27;20393;-65
2023/09/04 12:27:51;;;;;;;1.75;1.30;;;25.70;90.30;;;;;;5133332;27;20043;-63
2023/09/04 12:30:17;;;;;;;2.28;1.50;;;25.60;90.40;;;;;;5131725;27;20573;-64
2023/09/04 12:32:43;;;;;;;1.92;1.50;;;25.50;90.20;;;;;;5131651;27;20092;-64
2023/09/04 12:35:09;;;;;;;2.95;1.70;;;25.60;90.40;;;;;;5132867;27;20043;-64
2023/09/04 12:37:36;;;;;;;4.47;1.90;;;25.50;90.40;;;;;;5132739;27;20040;-64
2023/09/04 12:40:03;;;;;;;3.22;2.05;;;25.50;90.70;;;;;;5131613;27;20035;-64
2023/09/04 12:42:28;;;;;;;3.70;1.88;;;25.40;91.20;;;;;;5131037;27;20035;-64
2023/09/04 12:44:54;;;;;;;2.45;2.00;;;25.40;91.50;;;;;;5131479;27;20038;-63